Time;durP1;ratioP1;P1;durP2;ratioP2;P2;SDS_P1;SDS_P2;PMS_P1;PMS_P2;Temp;Humidity;BMP_temperature;BMP_pressure;BME280_temperature;BME280_humidity;BME280_pressure;Samples;Min_cycle;Max_cycle;Signal;HPM_P1;HPM_P2
2023/07/14 00:16:22;;;;;;;;;;;;;;;25.29;50.19;100340.38;42125881;28;19928;-82
2023/07/14 00:36:23;;;;;;;;;;;;;;;25.10;50.18;100343.97;42276302;28;19939;-80
2023/07/14 00:56:38;;;;;;;;;;;;;;;25.28;49.99;100343.19;42299196;28;19932;-80
2023/07/14 01:16:40;;;;;;;;;;;;;;;25.31;49.78;100356.16;42257029;28;20008;-80
2023/07/14 01:36:42;;;;;;;;;;;;;;;24.98;50.44;100369.00;42265808;28;20334;-80
2023/07/14 01:56:42;;;;;;;;;;;;;;;24.84;51.05;100379.06;42285634;28;20356;-81
2023/07/14 02:16:44;;;;;;;;;;;;;;;24.85;51.32;100380.72;42296112;28;19977;-80
2023/07/14 02:37:03;;;;;;;;;;;;;;;24.84;51.29;100394.94;42288198;28;20409;-80
2023/07/14 02:57:04;;;;;;;;;;;;;;;24.69;51.62;100423.66;42298886;28;19932;-79
2023/07/14 03:17:05;;;;;;;;;;;;;;;24.69;51.47;100425.50;42270666;28;19924;-80
2023/07/14 03:37:06;;;;;;;;;;;;;;;24.62;51.58;100441.09;42134206;28;19931;-83
2023/07/14 03:57:06;;;;;;;;;;;;;;;24.61;51.93;100450.81;42141678;28;19924;-83
2023/07/14 04:17:06;;;;;;;;;;;;;;;24.64;51.65;100465.59;42084494;28;19928;-85
2023/07/14 04:37:13;;;;;;;;;;;;;;;24.75;51.82;100491.94;42082326;28;19939;-84
2023/07/14 04:57:14;;;;;;;;;;;;;;;24.88;51.67;100496.16;42080719;28;19924;-82
2023/07/14 05:17:14;;;;;;;;;;;;;;;24.54;52.96;100537.06;42115799;28;19942;-80
2023/07/14 05:37:15;;;;;;;;;;;;;;;24.69;51.96;100539.34;42140998;28;19932;-85
2023/07/14 05:57:17;;;;;;;;;;;;;;;24.61;51.54;100532.91;42175349;28;19935;-83
2023/07/14 06:17:17;;;;;;;;;;;;;;;24.78;50.48;100551.75;42184949;28;19939;-81
2023/07/14 06:37:18;;;;;;;;;;;;;;;24.84;49.83;100551.22;42312683;28;19924;-76
2023/07/14 06:57:18;;;;;;;;;;;;;;;24.65;48.74;100567.88;42257354;27;19928;-78
2023/07/14 07:17:19;;;;;;;;;;;;;;;25.19;48.70;100560.38;42230135;27;20208;-76
2023/07/14 07:37:19;;;;;;;;;;;;;;;25.49;49.32;100571.81;42091191;28;20019;-75
2023/07/14 07:57:19;;;;;;;;;;;;;;;25.70;49.50;100573.44;42112647;28;19920;-75
2023/07/14 08:17:24;;;;;;;;;;;;;;;25.89;49.59;100569.88;42108240;28;19928;-83
2023/07/14 08:37:24;;;;;;;;;;;;;;;26.05;49.19;100564.78;42122885;28;19935;-84
2023/07/14 08:57:26;;;;;;;;;;;;;;;26.19;49.00;100557.34;42107538;28;19932;-85
2023/07/14 09:17:46;;;;;;;;;;;;;;;26.28;46.69;100563.56;42152551;28;19932;-76
2023/07/14 09:38:05;;;;;;;;;;;;;;;26.42;47.81;100564.91;42277268;28;19924;-78
2023/07/14 09:58:12;;;;;;;;;;;;;;;26.56;45.19;100552.91;42259509;28;19932;-77
2023/07/14 10:18:23;;;;;;;;;;;;;;;26.76;41.88;100529.75;42277810;27;20336;-74
2023/07/14 10:38:33;;;;;;;;;;;;;;;27.00;42.58;100529.94;42269434;27;19934;-76
2023/07/14 10:58:46;;;;;;;;;;;;;;;27.27;42.12;100501.56;42290539;28;19923;-77
2023/07/14 11:18:53;;;;;;;;;;;;;;;27.55;40.53;100482.81;42296427;28;20820;-76
2023/07/14 11:38:59;;;;;;;;;;;;;;;27.91;41.08;100479.94;42299497;28;19999;-77
2023/07/14 11:59:06;;;;;;;;;;;;;;;28.04;38.90;100458.19;42257982;27;19938;-80
2023/07/14 12:19:24;;;;;;;;;;;;;;;28.11;39.45;100442.41;42252417;28;20348;-79
2023/07/14 12:39:24;;;;;;;;;;;;;;;28.19;40.64;100423.81;42257230;28;19979;-80
2023/07/14 12:59:25;;;;;;;;;;;;;;;28.18;39.10;100424.81;42243694;28;19928;-86
2023/07/14 13:19:39;;;;;;;;;;;;;;;28.11;36.22;100408.66;42195042;28;19928;-84
2023/07/14 13:39:46;;;;;;;;;;;;;;;28.17;36.81;100387.69;42040674;28;19924;-74
2023/07/14 13:59:47;;;;;;;;;;;;;;;28.35;37.79;100384.88;42109750;28;19955;-82
2023/07/14 14:19:47;;;;;;;;;;;;;;;28.50;36.08;100363.72;42185352;28;19928;-79
2023/07/14 14:39:47;;;;;;;;;;;;;;;28.59;36.48;100362.72;42298776;27;20365;-81
2023/07/14 14:59:47;;;;;;;;;;;;;;;28.56;36.08;100350.59;42273603;28;20014;-83
2023/07/14 15:19:49;;;;;;;;;;;;;;;28.56;36.51;100342.59;42252656;27;19931;-79
2023/07/14 15:39:49;;;;;;;;;;;;;;;28.63;36.61;100316.09;42129385;28;19928;-79
2023/07/14 15:59:50;;;;;;;;;;;;;;;28.63;37.58;100324.09;42119019;28;19932;-80
2023/07/14 16:19:52;;;;;;;;;;;;;;;28.58;34.64;100315.78;42129592;28;19928;-90
2023/07/14 16:39:52;;;;;;;;;;;;;;;28.58;36.16;100300.63;42097114;28;20414;-84
2023/07/14 16:59:54;;;;;;;;;;;;;;;28.61;34.82;100310.09;42131257;28;19955;-85
2023/07/14 17:19:54;;;;;;;;;;;;;;;28.56;35.25;100315.94;42113525;28;19928;-82
2023/07/14 17:39:54;;;;;;;;;;;;;;;28.45;35.70;100318.94;42164174;28;20382;-80
2023/07/14 17:59:55;;;;;;;;;;;;;;;28.31;36.79;100316.97;42107865;28;19947;-80
2023/07/14 18:19:55;;;;;;;;;;;;;;;28.15;37.36;100333.78;42174914;27;19923;-79
2023/07/14 18:39:56;;;;;;;;;;;;;;;27.94;37.86;100337.72;42273298;27;19912;-78
2023/07/14 18:59:57;;;;;;;;;;;;;;;27.72;38.94;100352.50;42259845;27;19985;-79
2023/07/14 19:19:59;;;;;;;;;;;;;;;27.65;39.96;100360.31;42191875;28;19986;-80
2023/07/14 19:40:00;;;;;;;;;;;;;;;27.52;40.29;100351.97;42101044;28;19947;-80
2023/07/14 20:00:00;;;;;;;;;;;;;;;27.39;41.46;100360.38;42101873;28;19932;-80
2023/07/14 20:20:09;;;;;;;;;;;;;;;27.23;41.50;100367.28;42133329;28;20433;-80
2023/07/14 20:40:14;;;;;;;;;;;;;;;27.05;42.37;100353.25;42231850;27;19985;-80
2023/07/14 21:00:17;;;;;;;;;;;;;;;26.82;43.96;100353.81;42254419;28;19924;-80
2023/07/14 21:20:17;;;;;;;;;;;;;;;26.50;44.38;100345.44;42192348;28;19928;-82
2023/07/14 21:40:18;;;;;;;;;;;;;;;26.30;45.01;100366.00;42097869;28;19931;-82
2023/07/14 22:00:19;;;;;;;;;;;;;;;26.10;46.47;100375.97;42120842;28;20325;-80
2023/07/14 22:20:20;;;;;;;;;;;;;;;25.85;47.64;100396.91;42181323;28;19939;-81
2023/07/14 22:40:21;;;;;;;;;;;;;;;25.68;48.20;100414.47;42306825;28;19928;-81
2023/07/14 23:00:21;;;;;;;;;;;;;;;25.52;48.63;100398.34;42262031;28;19987;-83
2023/07/14 23:20:21;;;;;;;;;;;;;;;25.44;48.87;100399.09;42278213;28;19987;-82
2023/07/14 23:40:23;;;;;;;;;;;;;;;25.23;49.21;100389.53;42289505;27;19975;-82
